No particular awareness of the weather is required.    There are no Weather-warnings


Meteo18 Weather Cam more information Meteo18 Weather Cam


Thunder radar more information blitzortung!


Rain radar more information rain snow radar


Visit our other weather sites:

Template documentation
and downloads

And another site



Weather Underground History page Text

Daily Summary for March 10, 2017 Units:  English    Metric   Both
« Previous Day
Next Day »
Daily Weekly Monthly Yearly Custom
  High: Low: Average:
Temperature: 60.1 °F 48.4 °F 53.2 °F
Dew Point: 50.5 °F 42.4 °F 48 °F
Humidity: 97 % 59 % 83 %
Wind Speed: 7 mph 0 mph 1.7 mph
Wind Gust: 10 mph - -
Wind:- - ENE
Pressure: 30.4 in 30.2 in -
Precipitation: 0.02 in    
Historical Graphs
 
 
Tabular Data for March 10, 2017
Time Temperature Dew Point Pressure Wind Wind Speed Wind Gust Humidity Rainfall Rate (Hourly)
00:02 52.2 °F 49.6 °F 30.3 in Calm     91 % 0 in
00:12 52 °F 49.5 °F 30.3 in Calm     91 % 0 in
00:17 51.8 °F 49.6 °F 30.3 in Calm     92 % 0 in
00:22 52 °F 49.6 °F 30.3 in Calm     92 % 0 in
00:32 52.2 °F 49.6 °F 30.3 in Calm     91 % 0 in
00:37 52.2 °F 49.6 °F 30.3 in Calm     91 % 0 in
00:47 52.2 °F 49.6 °F 30.4 in Calm     91 % 0 in
00:52 52.2 °F 49.3 °F 30.4 in Calm     90 % 0 in
00:57 52.2 °F 49.3 °F 30.4 in Calm     90 % 0 in
01:02 52.2 °F 49.6 °F 30.4 in Calm     91 % 0 in
01:07 52.2 °F 49.6 °F 30.4 in Calm     91 % 0 in
01:12 52.2 °F 49.3 °F 30.4 in Calm     90 % 0 in
01:17 52.2 °F 49.3 °F 30.4 in Calm     90 % 0 in
01:22 52.2 °F 49.6 °F 30.4 in Calm     91 % 0 in
01:27 52.3 °F 49.8 °F 30.4 in Calm     91 % 0 in
01:32 52.3 °F 49.5 °F 30.4 in Calm     90 % 0 in
01:37 52.2 °F 49.6 °F 30.4 in Calm     91 % 0 in
01:42 52.2 °F 49.6 °F 30.4 in Calm     91 % 0 in
01:47 52.2 °F 49.6 °F 30.4 in Calm     91 % 0 in
01:52 52.3 °F 49.8 °F 30.4 in Calm     91 % 0 in
01:57 52.3 °F 49.8 °F 30.4 in Calm     91 % 0 in
02:02 52.3 °F 49.8 °F 30.4 in Calm     91 % 0 in
02:07 52.3 °F 50 °F 30.4 in Calm     92 % 0 in
02:12 52.3 °F 50 °F 30.4 in Calm     92 % 0 in
02:17 52.2 °F 49.8 °F 30.3 in Calm     92 % 0 in
02:22 52.2 °F 49.8 °F 30.3 in Calm     92 % 0 in
02:27 52.2 °F 49.8 °F 30.3 in WNW 1 mph 2 mph 92 % 0 in
02:32 52.3 °F 50 °F 30.3 in Calm   2 mph 92 % 0 in
02:37 52.2 °F 49.8 °F 30.3 in Calm   2 mph 92 % 0 in
02:42 52 °F 49.6 °F 30.3 in Calm   2 mph 92 % 0 in
02:47 51.6 °F 49.6 °F 30.3 in Calm   2 mph 93 % 0 in
02:57 51.4 °F 49.8 °F 30.3 in NE 2 mph 2 mph 94 % 0 in
03:02 51.3 °F 49.6 °F 30.3 in East 2 mph 3 mph 94 % 0 in
03:07 51.3 °F 49.6 °F 30.3 in ENE 1 mph 3 mph 94 % 0 in
03:12 51.1 °F 49.6 °F 30.3 in ENE 1 mph 3 mph 95 % 0 in
03:22 50.9 °F 49.5 °F 30.3 in Calm   2 mph 95 % 0.01 in
03:27 50.9 °F 49.5 °F 30.3 in Calm   2 mph 95 % 0.01 in
03:32 50.7 °F 49.3 °F 30.3 in Calm     95 % 0.01 in
03:37 50.7 °F 49.3 °F 30.3 in Calm     95 % 0.01 in
03:42 50.7 °F 49.6 °F 30.3 in Calm     96 % 0.02 in
03:47 50.7 °F 49.6 °F 30.3 in Calm     96 % 0.02 in
03:52 50.7 °F 49.6 °F 30.3 in Calm     96 % 0.02 in
03:57 50.7 °F 49.6 °F 30.3 in Calm     96 % 0.02 in
04:02 50.7 °F 49.6 °F 30.3 in Calm     96 % 0.02 in
04:12 50.7 °F 49.6 °F 30.3 in Calm     96 % 0.02 in
04:17 50.5 °F 49.5 °F 30.3 in Calm     96 % 0.02 in
04:22 50.5 °F 49.5 °F 30.3 in Calm     96 % 0.02 in
04:27 50.5 °F 49.5 °F 30.3 in Calm     96 % 0.02 in
04:32 50.5 °F 49.5 °F 30.3 in Calm     96 % 0.02 in
04:37 50.5 °F 49.5 °F 30.3 in Calm     96 % 0.01 in
04:42 50.5 °F 49.5 °F 30.3 in Calm     96 % 0.01 in
04:47 50.5 °F 49.5 °F 30.3 in Calm     96 % 0.01 in
04:52 50.5 °F 49.5 °F 30.3 in Calm     96 % 0.01 in
04:57 50.5 °F 49.5 °F 30.3 in Calm     96 % 0 in
05:02 50.5 °F 49.5 °F 30.3 in Calm     96 % 0 in
05:12 50.7 °F 49.8 °F 30.3 in Calm     97 % 0 in
05:17 50.7 °F 49.6 °F 30.3 in Calm     96 % 0 in
05:22 50.5 °F 49.5 °F 30.3 in Calm     96 % 0 in
05:27 50.5 °F 49.6 °F 30.3 in Calm     97 % 0 in
05:32 50.4 °F 49.5 °F 30.3 in Calm     97 % 0 in
05:37 50.4 °F 49.5 °F 30.3 in Calm     97 % 0 in
05:42 50.5 °F 49.6 °F 30.3 in Calm     97 % 0 in
05:47 50.5 °F 49.6 °F 30.3 in Calm     97 % 0 in
05:52 50.5 °F 49.6 °F 30.3 in East 1 mph   97 % 0 in
05:57 50.5 °F 49.6 °F 30.3 in ENE 1 mph 2 mph 97 % 0 in
06:02 50.5 °F 49.6 °F 30.3 in Calm   2 mph 97 % 0 in
06:07 50.4 °F 49.5 °F 30.3 in Calm   2 mph 97 % 0 in
06:12 50.4 °F 49.5 °F 30.3 in East 1 mph 2 mph 97 % 0 in
06:17 50.4 °F 49.5 °F 30.3 in East 1 mph 3 mph 97 % 0 in
06:22 50.4 °F 49.5 °F 30.3 in Calm   3 mph 97 % 0 in
06:32 50.4 °F 49.5 °F 30.3 in Calm   3 mph 97 % 0 in
06:42 50.2 °F 49.3 °F 30.3 in Calm   3 mph 97 % 0 in
06:52 50.2 °F 49.3 °F 30.3 in NE 4 mph 4 mph 97 % 0 in
06:57 50.2 °F 49.3 °F 30.3 in NE 5 mph 5 mph 97 % 0 in
07:02 50.2 °F 49.3 °F 30.3 in NE 2 mph 6 mph 97 % 0 in
07:07 50 °F 49.1 °F 30.3 in NE 1 mph 7 mph 97 % 0 in
07:12 49.8 °F 48.9 °F 30.3 in ENE 1 mph 7 mph 97 % 0 in
07:17 49.8 °F 48.9 °F 30.3 in NE 2 mph 3 mph 97 % 0 in
07:27 49.6 °F 48.7 °F 30.3 in NE 1 mph 3 mph 97 % 0 in
07:32 49.6 °F 48.7 °F 30.3 in NE 1 mph 3 mph 97 % 0 in
07:37 49.6 °F 48.7 °F 30.3 in NNE 1 mph 4 mph 97 % 0 in
07:42 49.6 °F 48.7 °F 30.3 in NNE 1 mph 4 mph 97 % 0 in
07:47 49.6 °F 48.7 °F 30.3 in NE 3 mph 4 mph 97 % 0 in
07:52 49.6 °F 48.7 °F 30.3 in NE 2 mph 4 mph 97 % 0 in
07:57 49.6 °F 48.7 °F 30.3 in NE 3 mph 5 mph 97 % 0 in
08:02 49.6 °F 48.7 °F 30.3 in NE 3 mph 5 mph 97 % 0 in
08:07 49.6 °F 48.7 °F 30.3 in NE 3 mph 5 mph 97 % 0 in
08:12 49.6 °F 48.7 °F 30.3 in NE 4 mph 5 mph 97 % 0 in
08:17 49.6 °F 48.7 °F 30.3 in NNE 4 mph 5 mph 97 % 0 in
08:22 49.8 °F 48.9 °F 30.3 in NNE 2 mph 5 mph 97 % 0 in
08:27 49.8 °F 48.9 °F 30.3 in NE 2 mph 5 mph 97 % 0 in
08:32 50.2 °F 49.3 °F 30.3 in NE 1 mph 5 mph 97 % 0 in
08:37 50.4 °F 49.5 °F 30.3 in NE 1 mph 5 mph 97 % 0 in
08:42 50.5 °F 49.6 °F 30.3 in NE 3 mph 5 mph 97 % 0 in
08:47 50.7 °F 49.8 °F 30.3 in NNE 3 mph 4 mph 97 % 0 in
08:52 51.1 °F 50 °F 30.3 in ENE 3 mph 4 mph 96 % 0 in
08:57 51.3 °F 50.2 °F 30.4 in ENE 4 mph 6 mph 96 % 0 in
09:02 51.4 °F 50.4 °F 30.3 in ENE 1 mph 6 mph 96 % 0 in
09:12 52 °F 50.4 °F 30.4 in ENE 1 mph 5 mph 94 % 0 in
09:17 52.2 °F 50.5 °F 30.4 in East 3 mph 4 mph 94 % 0 in
09:22 52.2 °F 50.5 °F 30.4 in ENE 4 mph 4 mph 94 % 0 in
09:27 52.2 °F 50.2 °F 30.4 in ENE 2 mph 5 mph 93 % 0 in
09:32 52.3 °F 50.4 °F 30.4 in East 3 mph 5 mph 93 % 0 in
09:37 52.5 °F 50.5 °F 30.4 in Calm   5 mph 93 % 0 in
09:42 52.7 °F 50.4 °F 30.4 in NE 5 mph 5 mph 92 % 0 in
09:47 52.5 °F 50 °F 30.4 in NE 2 mph 5 mph 91 % 0 in
09:52 52.5 °F 50.2 °F 30.4 in NNE 2 mph 5 mph 92 % 0 in
09:57 52.3 °F 49.8 °F 30.4 in NE 2 mph 7 mph 91 % 0 in
10:02 52.3 °F 49.8 °F 30.4 in NE 3 mph 7 mph 91 % 0 in
10:07 52.5 °F 50 °F 30.4 in NE 3 mph 9 mph 91 % 0 in
10:12 52.7 °F 49.5 °F 30.4 in ENE 4 mph 9 mph 89 % 0 in
10:17 52.7 °F 49.5 °F 30.4 in NE 4 mph 9 mph 89 % 0 in
10:22 52.7 °F 49.5 °F 30.4 in NNE 5 mph 9 mph 89 % 0 in
10:32 52.5 °F 49.6 °F 30.4 in NNE 6 mph 7 mph 90 % 0 in
10:37 52.9 °F 50 °F 30.4 in NNE 1 mph 7 mph 90 % 0 in
10:42 53.1 °F 49.8 °F 30.4 in NNE 4 mph 7 mph 89 % 0 in
10:47 53.2 °F 50 °F 30.4 in East 3 mph 6 mph 89 % 0 in
10:52 53.4 °F 50 °F 30.4 in NE 4 mph 6 mph 88 % 0 in
10:57 53.8 °F 50.4 °F 30.4 in NE 5 mph 6 mph 88 % 0 in
11:02 53.8 °F 50 °F 30.4 in East 4 mph 9 mph 87 % 0 in
11:12 54 °F 49.8 °F 30.4 in NNW 3 mph 9 mph 86 % 0 in
11:17 54 °F 49.8 °F 30.4 in NE 2 mph 8 mph 86 % 0 in
11:22 54.3 °F 49.8 °F 30.4 in NE 3 mph 7 mph 85 % 0 in
11:27 54.1 °F 49.5 °F 30.4 in NNE 1 mph 7 mph 84 % 0 in
11:32 54.5 °F 50 °F 30.4 in Calm   7 mph 85 % 0 in
11:37 54.5 °F 49.5 °F 30.4 in NNE 6 mph 7 mph 83 % 0 in
11:42 54.3 °F 49.6 °F 30.3 in NNE 1 mph 9 mph 84 % 0 in
11:47 54.3 °F 48.9 °F 30.3 in NNE 3 mph 9 mph 82 % 0 in
11:52 54.7 °F 49.6 °F 30.3 in NE 3 mph 9 mph 83 % 0 in
11:57 54.7 °F 49.6 °F 30.3 in NNE 3 mph 7 mph 83 % 0 in
12:02 55 °F 50 °F 30.3 in NNE 5 mph 7 mph 83 % 0 in
12:07 55 °F 49.3 °F 30.3 in Calm   9 mph 81 % 0 in
12:12 55.2 °F 49.5 °F 30.3 in ENE 2 mph 9 mph 81 % 0 in
12:17 55.2 °F 49.8 °F 30.3 in North 1 mph 8 mph 82 % 0 in
12:22 55.8 °F 50 °F 30.3 in North 5 mph 8 mph 81 % 0 in
12:32 55.4 °F 49.3 °F 30.3 in NNE 4 mph 9 mph 80 % 0 in
12:37 55.8 °F 49.3 °F 30.3 in North 3 mph 10 mph 79 % 0 in
12:42 56.1 °F 49.3 °F 30.3 in NNE 3 mph 10 mph 78 % 0 in
12:47 56.1 °F 49.3 °F 30.3 in North 2 mph 5 mph 78 % 0 in
12:52 56.5 °F 49.6 °F 30.3 in NNE 5 mph 5 mph 78 % 0 in
12:57 56.1 °F 48.9 °F 30.3 in Calm   6 mph 77 % 0 in
13:02 56.3 °F 49.1 °F 30.3 in NE 4 mph 6 mph 77 % 0 in
13:07 56.1 °F 49.3 °F 30.3 in NE 4 mph 9 mph 78 % 0 in
13:12 56.7 °F 49.8 °F 30.3 in NNE 5 mph 9 mph 78 % 0 in
13:17 56.7 °F 49.1 °F 30.3 in NNE 3 mph 7 mph 76 % 0 in
13:22 57 °F 49.5 °F 30.3 in NE 5 mph 8 mph 76 % 0 in
13:27 57.4 °F 50.2 °F 30.3 in NE 7 mph 8 mph 77 % 0 in
13:32 57 °F 49.1 °F 30.3 in NE 5 mph 8 mph 75 % 0 in
13:37 57 °F 49.1 °F 30.3 in ENE 4 mph 8 mph 75 % 0 in
13:42 57.4 °F 48.7 °F 30.3 in ENE 5 mph 8 mph 73 % 0 in
13:47 57.4 °F 48.7 °F 30.3 in East 3 mph 7 mph 73 % 0 in
13:52 57.7 °F 48.7 °F 30.3 in East 3 mph 7 mph 72 % 0 in
13:57 57.7 °F 49.5 °F 30.3 in NE 4 mph 6 mph 74 % 0 in
14:02 57.7 °F 48.7 °F 30.3 in NNW 3 mph 6 mph 72 % 0 in
14:12 58.3 °F 48.9 °F 30.3 in ENE 4 mph 7 mph 71 % 0 in
14:17 58.5 °F 48.4 °F 30.3 in NNE 4 mph 7 mph 69 % 0 in
14:22 58.5 °F 49.1 °F 30.3 in NE 1 mph 7 mph 71 % 0 in
14:32 58.6 °F 49.3 °F 30.3 in Calm   10 mph 71 % 0 in
14:37 58.8 °F 49.1 °F 30.3 in ENE 4 mph 10 mph 70 % 0 in
14:42 58.8 °F 49.5 °F 30.3 in East 4 mph 7 mph 71 % 0 in
14:47 59 °F 48 °F 30.3 in East 2 mph 7 mph 67 % 0 in
14:52 59 °F 48.4 °F 30.3 in ENE 2 mph 5 mph 68 % 0 in
14:57 59 °F 48.4 °F 30.3 in NNW 2 mph 7 mph 68 % 0 in
15:02 59.2 °F 48.6 °F 30.3 in North 4 mph 7 mph 68 % 0 in
15:07 59.4 °F 48.4 °F 30.3 in Calm   7 mph 67 % 0 in
15:12 59.7 °F 48.7 °F 30.3 in East 3 mph 6 mph 67 % 0 in
15:17 59.9 °F 48 °F 30.3 in NE 2 mph 6 mph 65 % 0 in
15:22 59.9 °F 48 °F 30.3 in East 2 mph 5 mph 65 % 0 in
15:27 59.7 °F 48 °F 30.3 in NE 4 mph 5 mph 65 % 0 in
15:32 59.5 °F 48.2 °F 30.3 in NE 2 mph 7 mph 66 % 0 in
15:37 59.5 °F 47.8 °F 30.3 in NNW 2 mph 8 mph 65 % 0 in
15:42 59.7 °F 48 °F 30.3 in ENE 2 mph 8 mph 65 % 0 in
15:47 59.7 °F 48.4 °F 30.3 in NE 3 mph 6 mph 66 % 0 in
15:52 59.7 °F 48.7 °F 30.3 in Calm   5 mph 67 % 0 in
15:57 60.1 °F 48.7 °F 30.3 in East 2 mph 5 mph 66 % 0 in
16:02 60.1 °F 48.7 °F 30.3 in NE 2 mph 5 mph 66 % 0 in
16:12 60.1 °F 48.7 °F 30.3 in East 1 mph 6 mph 66 % 0 in
16:17 60.1 °F 48.7 °F 30.3 in NE 3 mph 6 mph 66 % 0 in
16:22 59.9 °F 48.6 °F 30.3 in NE 2 mph 7 mph 66 % 0 in
16:27 60.1 °F 48.7 °F 30.3 in NE 5 mph 7 mph 66 % 0 in
16:32 60.1 °F 49.1 °F 30.3 in NE 2 mph 7 mph 67 % 0 in
16:37 60.1 °F 48.2 °F 30.3 in NNE 6 mph 7 mph 65 % 0 in
16:42 59.9 °F 47.3 °F 30.3 in NE 6 mph 8 mph 63 % 0 in
16:47 59.7 °F 46.2 °F 30.3 in North 5 mph 9 mph 61 % 0 in
16:52 59.7 °F 46.2 °F 30.3 in NNE 2 mph 9 mph 61 % 0 in
16:57 59.7 °F 46.2 °F 30.3 in NNE 5 mph 9 mph 61 % 0 in
17:02 59.7 °F 46.2 °F 30.3 in NNW 4 mph 9 mph 61 % 0 in
17:07 59.7 °F 46.2 °F 30.3 in NE 2 mph 7 mph 61 % 0 in
17:12 59.5 °F 45.1 °F 30.2 in NE 6 mph 7 mph 59 % 0 in
17:17 59.5 °F 46 °F 30.2 in NE 3 mph 8 mph 61 % 0 in
17:22 59.7 °F 47.5 °F 30.2 in NE 5 mph 8 mph 64 % 0 in
17:32 59.4 °F 46.8 °F 30.2 in ENE 5 mph 9 mph 63 % 0 in
17:42 59.2 °F 47.5 °F 30.3 in East 2 mph 9 mph 65 % 0 in
17:52 58.6 °F 47.7 °F 30.2 in ENE 1 mph 8 mph 67 % 0 in
17:57 58.5 °F 48 °F 30.3 in NNE 2 mph 7 mph 68 % 0 in
18:02 58.3 °F 46.6 °F 30.2 in North 3 mph 7 mph 65 % 0 in
18:12 57.7 °F 46.9 °F 30.3 in NE 2 mph 7 mph 67 % 0 in
18:17 57.4 °F 46.6 °F 30.2 in NE 2 mph 6 mph 67 % 0 in
18:22 57.2 °F 46.4 °F 30.2 in NE 4 mph 6 mph 67 % 0 in
18:32 56.8 °F 46.4 °F 30.3 in NNE 4 mph 6 mph 68 % 0 in
18:37 56.7 °F 46.2 °F 30.2 in NE 4 mph 5 mph 68 % 0 in
18:42 56.5 °F 46 °F 30.2 in NE 3 mph 5 mph 68 % 0 in
18:47 56.3 °F 45.9 °F 30.2 in NE 3 mph 5 mph 68 % 0 in
18:52 56.1 °F 46 °F 30.2 in NE 2 mph 5 mph 69 % 0 in
18:57 55.8 °F 46.6 °F 30.2 in NNE 4 mph 5 mph 71 % 0 in
19:02 55.6 °F 46.4 °F 30.2 in NE 3 mph 6 mph 71 % 0 in
19:12 55.2 °F 46 °F 30.2 in NNE 4 mph 6 mph 71 % 0 in
19:17 54.9 °F 46 °F 30.2 in North 2 mph 5 mph 72 % 0 in
19:22 54.3 °F 45.9 °F 30.3 in NNE 3 mph 5 mph 73 % 0 in
19:27 54.1 °F 46 °F 30.3 in NNE 4 mph 5 mph 74 % 0 in
19:32 54.3 °F 45.5 °F 30.3 in NNE 3 mph 5 mph 72 % 0 in
19:37 54.3 °F 45.5 °F 30.3 in NE 4 mph 5 mph 72 % 0 in
19:42 54.3 °F 45.5 °F 30.3 in NNE 4 mph 6 mph 72 % 0 in
19:47 54.3 °F 45.5 °F 30.3 in NNE 3 mph 6 mph 72 % 0 in
19:52 53.8 °F 45.3 °F 30.3 in NE 2 mph 6 mph 73 % 0 in
19:57 53.2 °F 45.1 °F 30.3 in North 1 mph 6 mph 74 % 0 in
20:02 52.9 °F 45.1 °F 30.3 in NE 2 mph 5 mph 75 % 0 in
20:07 52.5 °F 45.1 °F 30.3 in NNE 2 mph 4 mph 76 % 0 in
20:12 52.2 °F 45.1 °F 30.3 in NNE 1 mph 3 mph 77 % 0 in
20:17 52 °F 45 °F 30.3 in Calm   3 mph 77 % 0 in
20:22 51.6 °F 45 °F 30.3 in NE 1 mph 2 mph 78 % 0 in
20:27 51.4 °F 45.1 °F 30.3 in Calm   3 mph 79 % 0 in
20:32 51.3 °F 45 °F 30.3 in Calm   3 mph 79 % 0 in
20:37 51.1 °F 44.8 °F 30.2 in Calm   3 mph 79 % 0 in
20:42 50.7 °F 44.8 °F 30.3 in NNE 1 mph 2 mph 80 % 0 in
20:47 50.7 °F 44.4 °F 30.2 in Calm   2 mph 79 % 0 in
20:52 50.7 °F 44.4 °F 30.3 in Calm   2 mph 79 % 0 in
20:57 50.5 °F 44.2 °F 30.2 in Calm   3 mph 79 % 0 in
21:02 50.5 °F 44.6 °F 30.2 in Calm   3 mph 80 % 0 in
21:12 50.2 °F 44.2 °F 30.2 in Calm   3 mph 80 % 0 in
21:17 50.2 °F 44.2 °F 30.2 in Calm   3 mph 80 % 0 in
21:22 50.2 °F 44.2 °F 30.2 in Calm   3 mph 80 % 0 in
21:27 50.2 °F 44.2 °F 30.2 in Calm   2 mph 80 % 0 in
21:32 50.2 °F 44.2 °F 30.2 in NNW 1 mph 2 mph 80 % 0 in
21:37 49.8 °F 43.9 °F 30.2 in Calm   2 mph 80 % 0 in
21:42 49.6 °F 44.1 °F 30.2 in Calm   1 mph 81 % 0 in
21:47 49.6 °F 44.1 °F 30.2 in Calm   3 mph 81 % 0 in
21:52 49.5 °F 43.9 °F 30.2 in Calm   3 mph 81 % 0 in
21:57 49.5 °F 43.9 °F 30.2 in Calm   1 mph 81 % 0 in
22:02 49.5 °F 43.9 °F 30.2 in Calm   1 mph 81 % 0 in
22:12 49.5 °F 43.9 °F 30.2 in NNE 2 mph 3 mph 81 % 0 in
22:17 49.5 °F 43.9 °F 30.2 in Calm   3 mph 81 % 0 in
22:22 49.5 °F 43.9 °F 30.2 in Calm   3 mph 81 % 0 in
22:27 49.5 °F 43.9 °F 30.2 in North 1 mph 3 mph 81 % 0 in
22:32 49.5 °F 43.9 °F 30.2 in NNE 1 mph 3 mph 81 % 0 in
22:37 49.3 °F 43.7 °F 30.2 in NNE 1 mph 3 mph 81 % 0 in
22:42 49.3 °F 43.7 °F 30.2 in Calm   3 mph 81 % 0 in
22:47 49.1 °F 43.5 °F 30.2 in North 1 mph 3 mph 81 % 0 in
22:52 49.3 °F 43.7 °F 30.2 in Calm   2 mph 81 % 0 in
22:57 49.1 °F 43.5 °F 30.2 in NNW 1 mph 2 mph 81 % 0 in
23:02 48.9 °F 43.3 °F 30.2 in North 1 mph 2 mph 81 % 0 in
23:07 48.9 °F 43.3 °F 30.2 in Calm   2 mph 81 % 0 in
23:12 48.9 °F 43.3 °F 30.2 in Calm   2 mph 81 % 0 in
23:17 48.7 °F 43.2 °F 30.2 in NE 2 mph 2 mph 81 % 0 in
23:22 48.9 °F 43.3 °F 30.2 in NNE 1 mph 4 mph 81 % 0 in
23:27 48.9 °F 43 °F 30.2 in NNE 1 mph 4 mph 80 % 0 in
23:32 48.7 °F 43.2 °F 30.2 in Calm   4 mph 81 % 0 in
23:37 48.6 °F 43 °F 30.2 in Calm   3 mph 81 % 0 in
23:42 48.6 °F 43 °F 30.2 in Calm   1 mph 81 % 0 in
23:47 48.6 °F 43 °F 30.2 in ENE 1 mph 1 mph 81 % 0 in
23:52 48.6 °F 42.6 °F 30.2 in Calm   1 mph 80 % 0 in
23:57 48.4 °F 42.4 °F 30.2 in Calm   1 mph 80 % 0 in
Meteo18
Compliments of Weather Underground - 4 mb

Script developed by  Jim McMurry - jmcmurry@mwt.net Adapted for the template by  Wim van der Kuil - Leuven-Template.eu

You find our weather info also at:

European Weather Network

Weather Underground

Equipment we use:

Weather-station
Davis Vue

Weather-program
Meteohub

Weather-server
Raspberry PI 2 B+

Provider
1 and 1

Davis Vue

Meteohub

Raspberry PI 2 B+

1 and 1